Queen Elizabeth — ZCEF2 — position and weather

sailwx.info

Track history (hours):
 
Tides and Currents Weather Stations Pressure Air Temp Water Temp Dewpoint Dewpoint Depression Visibility Wind Speed Wind Dir Waves Ship Positions

Queen Elizabeth

Last reported at 2017-May-28 06:31 UTC. Time now 2017-May-28 06:46 UTC.
Position N 48°40' W 005°12'.

Length 294 m; draft 8 m.

Type: Ship. MMSI: 310625000.

Date/timePositionNaut miles runAvg speedWind from/ knotsBaromVisibWave heightAir tempDewpointWater temp
2017-May-28 06:31N 48°40' W 005°12'816.7
2017-May-28 06:01N 48°45' W 005°02'816.4
2017-May-28 05:31N 48°51' W 004°53'816.4
2017-May-28 05:01N 48°56' W 004°44'816.8
2017-May-28 04:31N 49°02' W 004°34'917.3
2017-May-28 04:01N 49°08' W 004°24'917.9
2017-May-28 03:31N 49°14' W 004°14'918.7
2017-May-28 03:01N 49°21' W 004°05'1019.2
2017-May-28 02:30N 49°28' W 003°55'1119.9
2017-May-28 01:58N 49°34' W 003°42'920.4
2017-May-28 01:31N 49°39' W 003°29'1019.9
2017-May-28 01:01N 49°46' W 003°18'1119.6
2017-May-28 00:28N 49°53' W 003°06'919.1
2017-May-28 00:01N 49°59' W 002°56'918.3
2017-May-27 23:29N 50°02' W 002°42'1632.1
2017-May-27 23:00N 50°06' W 002°18'416.4 240 / 101018.410.8 12.511.613.0
2017-May-27 22:46N 50°05' W 002°24'516.0
2017-May-27 22:29N 50°08' W 002°17'1015.2
2017-May-27 21:51N 50°12' W 002°04'1414.6
2017-May-27 20:52N 50°19' W 001°44'514.8
2017-May-27 20:30N 50°21' W 001°37'815.0
2017-May-27 20:00N 50°25' W 001°26'715.2
2017-May-27 19:30N 50°29' W 001°16'815.0
2017-May-27 19:01N 50°32' W 001°06'713.3
2017-May-27 18:31N 50°37' W 000°59'510.6
2017-May-27 18:01N 50°42' W 000°58'816.4
2017-May-27 17:31N 50°46' W 001°10'611.2
2017-May-27 17:00N 50°49' W 001°18'611.0
2017-May-27 16:30N 50°53' W 001°24'2 4.3
2017-May-27 16:00N 50°54' W 001°26'0 0.2
2017-May-27 15:30N 50°54' W 001°26'0 0.0
2017-May-27 15:00N 50°54' W 001°26'0 0.0
2017-May-27 14:30N 50°54' W 001°26'0 0.0
2017-May-27 13:30N 50°54' W 001°26'0 0.0
2017-May-27 13:00N 50°54' W 001°26'0 0.0
2017-May-27 12:27N 50°54' W 001°26'0 0.0
2017-May-27 12:00N 50°54' W 001°26'0 0.0
2017-May-27 11:30N 50°54' W 001°26'0 0.0
2017-May-27 11:00N 50°54' W 001°26'0 0.0
2017-May-27 10:30N 50°54' W 001°26'0 0.0
2017-May-27 10:00N 50°54' W 001°26'0 0.0
2017-May-27 09:30N 50°54' W 001°26'0 0.0
2017-May-27 09:00N 50°54' W 001°26'0 0.0
2017-May-27 08:30N 50°54' W 001°26'0 0.0
2017-May-27 08:00N 50°54' W 001°26'0 0.0
2017-May-27 07:30N 50°54' W 001°26'0 0.0
2017-May-27 07:00N 50°54' W 001°26'0 0.0
2017-May-27 06:30N 50°54' W 001°26'0 0.0
2017-May-27 06:00N 50°54' W 001°26'1 2.5
2017-May-27 05:30N 50°53' W 001°24'4 8.5
2017-May-27 05:00N 50°51' W 001°20'4 8.3
2017-May-27 04:30N 50°47' W 001°18'816.1
2017-May-27 04:01N 50°45' W 001°05'714.7
2017-May-27 03:31N 50°40' W 000°56'611.9
2017-May-27 03:00N 50°37' W 000°48'815.2
2017-May-27 02:30N 50°36' W 000°36'815.4
2017-May-27 02:00N 50°35' W 000°24'815.8
2017-May-27 01:31N 50°33' W 000°12'816.2
2017-May-27 01:01N 50°33' E 000°01'816.1
2017-May-27 00:31N 50°35' E 000°13'1117.6
2017-May-26 23:52N 50°35' E 000°31'617.6
2017-May-26 23:30N 50°38' E 000°40'918.3
2017-May-26 23:00N 50°44' E 000°51'1019.5
2017-May-26 22:31N 50°50' E 001°03'1019.8
2017-May-26 22:00N 50°57' E 001°14'3254.7
2017-May-26 22:00N 50°54' E 001°12'1327.1 110 / 161014.3 5.4 15.013.213.0
2017-May-26 21:31N 51°04' E 001°26'1020.1
2017-May-26 21:01N 51°09' E 001°39'1121.8
2017-May-26 20:31N 51°19' E 001°48'1223.3
2017-May-26 20:01N 51°29' E 001°57'1122.1
2017-May-26 19:31N 51°39' E 002°05'1122.0
2017-May-26 19:00N 51°49' E 002°11'1121.8
2017-May-26 18:30N 51°60' E 002°15'2519.9
2017-May-26 17:14N 52°25' E 002°23'419.4
2017-May-26 17:00N 52°29' E 002°25'919.0
2017-May-26 16:30N 52°38' E 002°28'1118.6
2017-May-26 15:56N 52°49' E 002°31'3618.7
2017-May-26 14:01N 53°23' E 002°49'1819.7
2017-May-26 13:07N 53°39' E 002°60'620.4
2017-May-26 12:48N 53°45' E 003°04'21520.3
2017-May-26 02:11N 57°19' E 003°44'921.3
2017-May-26 01:47N 57°28' E 003°46'821.4
2017-May-26 01:23N 57°36' E 003°47'821.5
2017-May-26 01:00N 57°44' E 003°49'1121.5
2017-May-26 00:30N 57°55' E 003°50'1121.3
2017-May-26 00:00N 58°06' E 003°51'1121.5
2017-May-25 23:31N 58°16' E 003°55'1421.2
2017-May-25 22:51N 58°30' E 003°57'1220.9
2017-May-25 22:17N 58°42' E 003°59'12 9.5
2017-May-25 21:00N 58°54' E 004°00'8823.4 270 / 191024.4 5.4 10.010.011.0
2017-May-25 17:13N 60°21' E 004°26'419.8
2017-May-25 17:00N 60°26' E 004°27'1019.9
2017-May-25 16:30N 60°35' E 004°31'918.8
2017-May-25 16:00N 60°44' E 004°38'713.3
2017-May-25 15:30N 60°41' E 004°50'919.2
2017-May-25 15:00N 60°32' E 004°57'1211.7
2017-May-25 14:00N 60°24' E 005°15'2 3.9
2017-May-25 13:29N 60°24' E 005°19'0 0.0
2017-May-25 12:59N 60°24' E 005°19'0 0.0
2017-May-25 12:29N 60°24' E 005°19'0 0.0
2017-May-25 11:59N 60°24' E 005°19'0 0.0
2017-May-25 11:29N 60°24' E 005°19'0 0.0
2017-May-25 10:59N 60°24' E 005°19'0 0.0
2017-May-25 10:29N 60°24' E 005°19'0 0.0
2017-May-25 09:59N 60°24' E 005°19'0 0.0
2017-May-25 09:29N 60°24' E 005°19'0 0.0
2017-May-25 08:59N 60°24' E 005°19'0 0.0
2017-May-25 08:29N 60°24' E 005°19'0 0.0
2017-May-25 07:59N 60°24' E 005°19'0 0.0
2017-May-25 07:29N 60°24' E 005°19'0 0.0
2017-May-25 06:59N 60°24' E 005°19'0 0.0
2017-May-25 06:29N 60°24' E 005°19'0 0.0
2017-May-25 05:59N 60°24' E 005°19'0 0.1
2017-May-25 05:30N 60°24' E 005°19'3 6.1
2017-May-25 05:00N 60°24' E 005°13'510.4
2017-May-25 04:30N 60°25' E 005°03'613.0
2017-May-25 04:00N 60°31' E 004°57'612.0
2017-May-25 03:30N 60°37' E 004°53'611.8
2017-May-25 03:00N 60°42' E 004°48'612.9
2017-May-25 02:30N 60°45' E 004°37'612.6
2017-May-25 02:00N 60°50' E 004°27'612.6
2017-May-25 01:30N 60°55' E 004°23'612.7
2017-May-25 01:00N 61°02' E 004°18'712.9
2017-May-25 00:30N 61°08' E 004°16'1912.9
2017-May-24 23:00N 61°27' E 004°19'713.0
2017-May-24 22:30N 61°34' E 004°21'713.2
2017-May-24 22:00N 61°40' E 004°22'612.9
2017-May-24 21:30N 61°46' E 004°29'613.1
2017-May-24 21:00N 61°51' E 004°36'713.3
2017-May-24 20:30N 61°57' E 004°44'612.1
2017-May-24 20:00N 61°58' E 004°56'612.2
2017-May-24 19:30N 61°55' E 005°07'714.1
2017-May-24 19:00N 61°55' E 005°21'714.9
2017-May-24 18:30N 61°54' E 005°37'7 0.4
2017-May-24 03:19N 61°51' E 005°50'310.3
2017-May-24 02:59N 61°53' E 005°44'612.2
2017-May-24 02:30N 61°55' E 005°32'612.3
2017-May-24 02:00N 61°54' E 005°19'612.1
2017-May-24 01:30N 61°55' E 005°06'713.0
2017-May-24 01:00N 61°59' E 004°55'713.5
2017-May-24 00:31N 62°03' E 004°44'611.9
2017-May-24 00:00N 62°09' E 004°47'612.7
2017-May-23 23:30N 62°14' E 004°54'612.3
2017-May-23 23:01N 62°19' E 005°01'612.5
2017-May-23 22:30N 62°25' E 005°08'714.2
2017-May-23 22:00N 62°29' E 005°21'815.9
2017-May-23 21:30N 62°31' E 005°37'816.0
2017-May-23 20:59N 62°28' E 005°53'815.9
2017-May-23 20:29N 62°23' E 006°07'816.0
2017-May-23 20:00N 62°24' E 006°24'815.8
2017-May-23 19:30N 62°27' E 006°40'714.6
2017-May-23 19:00N 62°25' E 006°55'714.4
2017-May-23 18:30N 62°18' E 006°59'815.1
2017-May-23 18:00N 62°11' E 007°01'5 9.7
2017-May-23 17:30N 62°06' E 006°60'3 5.6
2017-May-23 17:00N 62°06' E 007°06'1 1.9
2017-May-23 16:30N 62°07' E 007°07'2 4.0
2017-May-23 16:00N 62°07' E 007°11'0 0.1
2017-May-23 15:30N 62°07' E 007°11'0 0.0
2017-May-23 15:00N 62°07' E 007°11'0 0.0
2017-May-23 14:00N 62°07' E 007°11'0 0.1
2017-May-23 13:30N 62°07' E 007°11'0 0.0
2017-May-23 13:00N 62°07' E 007°11'0 0.0
2017-May-23 12:30N 62°07' E 007°11'0 0.0
2017-May-23 12:00N 62°07' E 007°11'0 0.0
2017-May-23 11:30N 62°07' E 007°11'0 0.0
2017-May-23 10:59N 62°07' E 007°11'0 0.0
2017-May-23 10:30N 62°07' E 007°11'0 0.0
2017-May-23 10:00N 62°07' E 007°11'0 0.0
2017-May-23 09:30N 62°07' E 007°11'0 0.0
2017-May-23 09:00N 62°07' E 007°11'0 0.0
2017-May-23 08:30N 62°07' E 007°11'0 0.0
2017-May-23 08:00N 62°07' E 007°11'0 0.0
2017-May-23 07:30N 62°07' E 007°11'0 0.0
2017-May-23 07:00N 62°07' E 007°11'0 0.0
2017-May-23 06:30N 62°07' E 007°11'0 0.0
2017-May-23 06:00N 62°07' E 007°11'0 0.2
2017-May-23 05:30N 62°07' E 007°11'5 9.6
2017-May-23 05:00N 62°06' E 007°01'612.5
2017-May-23 04:30N 62°12' E 007°02'816.7
2017-May-23 04:00N 62°20' E 006°57'715.2
2017-May-23 03:30N 62°27' E 006°50'816.2
2017-May-23 03:00N 62°26' E 006°32'917.5
2017-May-23 02:30N 62°23' E 006°15'815.6
2017-May-23 02:00N 62°26' E 005°60'917.9
2017-May-23 01:30N 62°30' E 005°42'917.6
2017-May-23 01:00N 62°28' E 005°23'1019.6
2017-May-23 00:30N 62°23' E 005°05'1020.9
2017-May-23 00:00N 62°14' E 004°54'1121.4
2017-May-22 23:30N 62°04' E 004°44'1121.2
2017-May-22 23:00N 61°55' E 004°33'1121.1
2017-May-22 22:30N 61°45' E 004°24'1121.6
2017-May-22 22:00N 61°34' E 004°22'1122.0
2017-May-22 21:30N 61°23' E 004°21'918.8
2017-May-22 21:00N 61°15' E 004°31'1020.2
2017-May-22 20:29N 61°14' E 004°52'714.1
2017-May-22 20:00N 61°10' E 005°04'815.5
2017-May-22 19:30N 61°05' E 005°16'1019.3
2017-May-22 19:00N 61°06' E 005°36'1020.7
2017-May-22 18:30N 61°08' E 005°57'1021.0
2017-May-22 18:00N 61°07' E 006°18'918.0
2017-May-22 17:30N 61°10' E 006°36'917.8
2017-May-22 17:00N 61°08' E 006°53'1020.1
2017-May-22 16:30N 60°59' E 007°04'611.9
2017-May-22 16:00N 60°54' E 007°10'3 5.6
2017-May-22 15:30N 60°52' E 007°07'0 0.3
2017-May-22 14:58N 60°52' E 007°07'0 0.0
2017-May-22 13:58N 60°52' E 007°07'0 0.0
2017-May-22 13:28N 60°52' E 007°07'0 0.0
2017-May-22 12:58N 60°52' E 007°07'0 0.0
2017-May-22 12:28N 60°52' E 007°07'0 0.0
2017-May-22 11:58N 60°52' E 007°07'0 0.0
2017-May-22 11:28N 60°52' E 007°07'0 0.0
2017-May-22 10:58N 60°52' E 007°07'0 0.0
2017-May-22 10:28N 60°52' E 007°07'0 0.0
2017-May-22 09:58N 60°52' E 007°07'0 0.0
2017-May-22 09:28N 60°52' E 007°07'0 0.0
2017-May-22 08:58N 60°52' E 007°07'0 0.0
2017-May-22 08:28N 60°52' E 007°07'0 0.0
2017-May-22 07:58N 60°52' E 007°07'0 0.0
2017-May-22 07:28N 60°52' E 007°07'0 0.0
2017-May-22 06:58N 60°52' E 007°07'0 0.0
2017-May-22 06:28N 60°52' E 007°07'0 0.7
2017-May-22 06:00N 60°52' E 007°08'5 8.9
2017-May-22 05:30N 60°56' E 007°10'713.8
2017-May-22 05:01N 61°02' E 007°02'714.4
2017-May-22 04:30N 61°08' E 006°54'714.6
2017-May-22 04:00N 61°11' E 006°40'713.3
2017-May-22 03:30N 61°07' E 006°30'714.7
2017-May-22 03:00N 61°07' E 006°14'815.1
2017-May-22 02:30N 61°08' E 005°59'815.1
2017-May-22 02:00N 61°08' E 005°43'714.8
2017-May-22 01:30N 61°05' E 005°29'713.3
2017-May-22 00:59N 61°05' E 005°15'713.4
2017-May-22 00:30N 61°04' E 005°02'815.1
2017-May-22 00:00N 61°00' E 004°49'714.0
2017-May-21 23:30N 60°55' E 004°40'612.4
2017-May-21 23:00N 60°51' E 004°30'714.6
2017-May-21 22:30N 60°44' E 004°25'815.5
2017-May-21 22:00N 60°36' E 004°25'815.2
2017-May-21 21:30N 60°29' E 004°25'7016.8
2017-May-21 17:20N 59°19' E 004°40'618.8
2017-May-21 17:00N 59°13' E 004°42'918.7
2017-May-21 16:30N 59°07' E 004°57'918.2
2017-May-21 16:01N 59°07' E 005°14'816.8
2017-May-21 15:30N 59°07' E 005°31'815.9
2017-May-21 15:00N 59°00' E 005°41'2 4.5
2017-May-21 14:28N 58°58' E 005°44'0 0.0
2017-May-21 13:28N 58°58' E 005°44'0 0.0
2017-May-21 12:58N 58°58' E 005°44'0 0.0
2017-May-21 12:28N 58°58' E 005°44'0 0.0
2017-May-21 11:58N 58°58' E 005°44'0 0.0
2017-May-21 11:28N 58°58' E 005°44'0 0.0
2017-May-21 10:58N 58°58' E 005°44'0 0.0
2017-May-21 10:28N 58°58' E 005°44'0 0.0
2017-May-21 09:58N 58°58' E 005°44'0 0.0
2017-May-21 09:28N 58°58' E 005°44'0 0.0
2017-May-21 08:58N 58°58' E 005°44'0 0.0
2017-May-21 08:28N 58°58' E 005°44'0 0.0
2017-May-21 07:58N 58°58' E 005°44'0 0.0
2017-May-21 07:28N 58°58' E 005°44'0 0.0
2017-May-21 06:55N 58°58' E 005°44'0 0.0
2017-May-21 06:28N 58°58' E 005°44'1 1.2
2017-May-21 06:00N 58°59' E 005°43'612.0
2017-May-21 05:30N 59°03' E 005°34'815.9
2017-May-21 05:00N 58°55' E 005°32'714.2
2017-May-21 04:31N 58°49' E 005°26'816.2
2017-May-21 04:00N 58°43' E 005°15'918.5
2017-May-21 03:30N 58°35' E 005°07'917.7
2017-May-21 03:00N 58°27' E 004°59'816.8
2017-May-21 02:30N 58°19' E 004°52'816.5
2017-May-21 02:00N 58°12' E 004°44'7618.9
2017-May-20 22:00N 57°00' E 004°00'7915.8 160 / 211020.710.8 9.5 8.510.0
2017-May-20 17:00N 55°42' E 003°36'15218.3 190 / 171019.627.0 11.0 9.010.0
2017-May-20 08:40N 53°12' E 002°46'320.5
2017-May-20 08:30N 53°09' E 002°44'1020.1
2017-May-20 08:00N 52°59' E 002°41'1120.5
2017-May-20 07:29N 52°49' E 002°41'4019.6
2017-May-20 05:25N 52°08' E 002°39'819.4
2017-May-20 04:59N 52°00' E 002°38'919.3
2017-May-20 04:30N 51°51' E 002°39'1319.0
2017-May-20 03:50N 51°40' E 002°27'619.1
2017-May-20 03:30N 51°36' E 002°20'918.9
2017-May-20 03:00N 51°28' E 002°11'918.2
2017-May-20 02:30N 51°20' E 002°07'917.8
2017-May-20 02:01N 51°12' E 001°59'918.9
2017-May-20 01:30N 51°07' E 001°46'918.8
2017-May-20 01:00N 51°01' E 001°34'918.8
2017-May-20 00:30N 50°54' E 001°25'1019.1
2017-May-20 00:00N 50°45' E 001°21'3418.3
2017-May-19 22:10N 50°27' E 000°36'319.0
2017-May-19 22:00N 50°26' E 000°31'4545.3
2017-May-19 22:00N 50°24' E 000°36'1225.0 230 / 141016.210.8 11.0 7.912.0
2017-May-19 21:30N 50°24' E 000°17'1018.8
2017-May-19 20:59N 50°21' E 000°02'918.5
2017-May-19 20:30N 50°24' W 000°11'815.9
2017-May-19 20:00N 50°28' W 000°22'917.2
2017-May-19 19:30N 50°32' W 000°34'917.4
2017-May-19 19:00N 50°36' W 000°46'713.1
2017-May-19 18:31N 50°39' W 000°55'4 8.5
2017-May-19 18:01N 50°43' W 000°59'816.9
2017-May-19 17:30N 50°46' W 001°12'5 9.3
2017-May-19 17:00N 50°49' W 001°17'510.3
2017-May-19 16:30N 50°52' W 001°23'3 5.8
2017-May-19 16:01N 50°54' W 001°26'0 0.6
2017-May-19 15:28N 50°54' W 001°26'0 0.0
2017-May-19 14:58N 50°54' W 001°26'0 0.0
2017-May-19 13:58N 50°54' W 001°26'0 0.0
2017-May-19 13:28N 50°54' W 001°26'0 0.0
2017-May-19 12:58N 50°54' W 001°26'0 0.0
2017-May-19 12:28N 50°54' W 001°26'0 0.0
2017-May-19 11:58N 50°54' W 001°26'0 0.0
2017-May-19 11:28N 50°54' W 001°26'0 0.0
2017-May-19 10:58N 50°54' W 001°26'0 0.0
2017-May-19 10:28N 50°54' W 001°26'0 0.0
2017-May-19 09:58N 50°54' W 001°26'0 0.0
2017-May-19 09:28N 50°54' W 001°26'0 0.0
2017-May-19 08:58N 50°54' W 001°26'0 0.0
2017-May-19 08:28N 50°54' W 001°26'0 0.0
2017-May-19 07:58N 50°54' W 001°26'0 0.0
2017-May-19 07:28N 50°54' W 001°26'0 0.0
2017-May-19 06:58N 50°54' W 001°26'0 0.0
2017-May-19 06:28N 50°54' W 001°26'0 0.0
2017-May-19 05:58N 50°54' W 001°26'1 1.4
2017-May-19 05:30N 50°54' W 001°25'4 8.9
2017-May-19 05:00N 50°51' W 001°20'4 8.8
2017-May-19 04:31N 50°47' W 001°18'816.4
2017-May-19 04:01N 50°45' W 001°06'5010.1
2017-May-18 23:00N 50°00' W 001°42'45 2.8 270 / 171013.210.8
2017-May-18 06:44N 49°27' W 002°30'  
Track history (hours):
 
Tides and Currents Weather Stations Pressure Air Temp Water Temp Dewpoint Dewpoint Depression Visibility Wind Speed Wind Dir Waves Ship Positions

Queen Elizabeth

Last reported at 2017-May-28 06:31 UTC. Time now 2017-May-28 06:46 UTC.
Position N 48°40' W 005°12'.

Length 294 m; draft 8 m.

Type: Ship. MMSI: 310625000.

Date/timePositionNaut miles runAvg speedWind from/ knotsBaromVisibWave heightAir tempDewpointWater temp
2017-May-28 06:31N 48°40' W 005°12'816.7
2017-May-28 06:01N 48°45' W 005°02'816.4
2017-May-28 05:31N 48°51' W 004°53'816.4
2017-May-28 05:01N 48°56' W 004°44'816.8
2017-May-28 04:31N 49°02' W 004°34'917.3
2017-May-28 04:01N 49°08' W 004°24'917.9
2017-May-28 03:31N 49°14' W 004°14'918.7
2017-May-28 03:01N 49°21' W 004°05'1019.2
2017-May-28 02:30N 49°28' W 003°55'1119.9
2017-May-28 01:58N 49°34' W 003°42'920.4
2017-May-28 01:31N 49°39' W 003°29'1019.9
2017-May-28 01:01N 49°46' W 003°18'1119.6
2017-May-28 00:28N 49°53' W 003°06'919.1
2017-May-28 00:01N 49°59' W 002°56'918.3
2017-May-27 23:29N 50°02' W 002°42'1632.1
2017-May-27 23:00N 50°06' W 002°18'416.4 240 / 101018.410.8 12.511.613.0
2017-May-27 22:46N 50°05' W 002°24'516.0
2017-May-27 22:29N 50°08' W 002°17'1015.2
2017-May-27 21:51N 50°12' W 002°04'1414.6
2017-May-27 20:52N 50°19' W 001°44'514.8
2017-May-27 20:30N 50°21' W 001°37'815.0
2017-May-27 20:00N 50°25' W 001°26'715.2
2017-May-27 19:30N 50°29' W 001°16'815.0
2017-May-27 19:01N 50°32' W 001°06'713.3
2017-May-27 18:31N 50°37' W 000°59'510.6
2017-May-27 18:01N 50°42' W 000°58'816.4
2017-May-27 17:31N 50°46' W 001°10'611.2
2017-May-27 17:00N 50°49' W 001°18'611.0
2017-May-27 16:30N 50°53' W 001°24'2 4.3
2017-May-27 16:00N 50°54' W 001°26'0 0.2
2017-May-27 15:30N 50°54' W 001°26'0 0.0
2017-May-27 15:00N 50°54' W 001°26'0 0.0
2017-May-27 14:30N 50°54' W 001°26'0 0.0
2017-May-27 13:30N 50°54' W 001°26'0 0.0
2017-May-27 13:00N 50°54' W 001°26'0 0.0
2017-May-27 12:27N 50°54' W 001°26'0 0.0
2017-May-27 12:00N 50°54' W 001°26'0 0.0
2017-May-27 11:30N 50°54' W 001°26'0 0.0
2017-May-27 11:00N 50°54' W 001°26'0 0.0
2017-May-27 10:30N 50°54' W 001°26'0 0.0
2017-May-27 10:00N 50°54' W 001°26'0 0.0
2017-May-27 09:30N 50°54' W 001°26'0 0.0
2017-May-27 09:00N 50°54' W 001°26'0 0.0
2017-May-27 08:30N 50°54' W 001°26'0 0.0
2017-May-27 08:00N 50°54' W 001°26'0 0.0
2017-May-27 07:30N 50°54' W 001°26'0 0.0
2017-May-27 07:00N 50°54' W 001°26'0 0.0
2017-May-27 06:30N 50°54' W 001°26'0 0.0
2017-May-27 06:00N 50°54' W 001°26'1 2.5
2017-May-27 05:30N 50°53' W 001°24'4 8.5
2017-May-27 05:00N 50°51' W 001°20'4 8.3
2017-May-27 04:30N 50°47' W 001°18'816.1
2017-May-27 04:01N 50°45' W 001°05'714.7
2017-May-27 03:31N 50°40' W 000°56'611.9
2017-May-27 03:00N 50°37' W 000°48'815.2
2017-May-27 02:30N 50°36' W 000°36'815.4
2017-May-27 02:00N 50°35' W 000°24'815.8
2017-May-27 01:31N 50°33' W 000°12'816.2
2017-May-27 01:01N 50°33' E 000°01'816.1
2017-May-27 00:31N 50°35' E 000°13'1117.6
2017-May-26 23:52N 50°35' E 000°31'617.6
2017-May-26 23:30N 50°38' E 000°40'918.3
2017-May-26 23:00N 50°44' E 000°51'1019.5
2017-May-26 22:31N 50°50' E 001°03'1019.8
2017-May-26 22:00N 50°57' E 001°14'3254.7
2017-May-26 22:00N 50°54' E 001°12'1327.1 110 / 161014.3 5.4 15.013.213.0
2017-May-26 21:31N 51°04' E 001°26'1020.1
2017-May-26 21:01N 51°09' E 001°39'1121.8
2017-May-26 20:31N 51°19' E 001°48'1223.3
2017-May-26 20:01N 51°29' E 001°57'1122.1
2017-May-26 19:31N 51°39' E 002°05'1122.0
2017-May-26 19:00N 51°49' E 002°11'1121.8
2017-May-26 18:30N 51°60' E 002°15'2519.9
2017-May-26 17:14N 52°25' E 002°23'419.4
2017-May-26 17:00N 52°29' E 002°25'919.0
2017-May-26 16:30N 52°38' E 002°28'1118.6
2017-May-26 15:56N 52°49' E 002°31'3618.7
2017-May-26 14:01N 53°23' E 002°49'1819.7
2017-May-26 13:07N 53°39' E 002°60'620.4
2017-May-26 12:48N 53°45' E 003°04'21520.3
2017-May-26 02:11N 57°19' E 003°44'921.3
2017-May-26 01:47N 57°28' E 003°46'821.4
2017-May-26 01:23N 57°36' E 003°47'821.5
2017-May-26 01:00N 57°44' E 003°49'1121.5
2017-May-26 00:30N 57°55' E 003°50'1121.3
2017-May-26 00:00N 58°06' E 003°51'1121.5
2017-May-25 23:31N 58°16' E 003°55'1421.2
2017-May-25 22:51N 58°30' E 003°57'1220.9
2017-May-25 22:17N 58°42' E 003°59'12 9.5
2017-May-25 21:00N 58°54' E 004°00'8823.4 270 / 191024.4 5.4 10.010.011.0
2017-May-25 17:13N 60°21' E 004°26'419.8
2017-May-25 17:00N 60°26' E 004°27'1019.9
2017-May-25 16:30N 60°35' E 004°31'918.8
2017-May-25 16:00N 60°44' E 004°38'713.3
2017-May-25 15:30N 60°41' E 004°50'919.2
2017-May-25 15:00N 60°32' E 004°57'1211.7
2017-May-25 14:00N 60°24' E 005°15'2 3.9
2017-May-25 13:29N 60°24' E 005°19'0 0.0
2017-May-25 12:59N 60°24' E 005°19'0 0.0
2017-May-25 12:29N 60°24' E 005°19'0 0.0
2017-May-25 11:59N 60°24' E 005°19'0 0.0
2017-May-25 11:29N 60°24' E 005°19'0 0.0
2017-May-25 10:59N 60°24' E 005°19'0 0.0
2017-May-25 10:29N 60°24' E 005°19'0 0.0
2017-May-25 09:59N 60°24' E 005°19'0 0.0
2017-May-25 09:29N 60°24' E 005°19'0 0.0
2017-May-25 08:59N 60°24' E 005°19'0 0.0
2017-May-25 08:29N 60°24' E 005°19'0 0.0
2017-May-25 07:59N 60°24' E 005°19'0 0.0
2017-May-25 07:29N 60°24' E 005°19'0 0.0
2017-May-25 06:59N 60°24' E 005°19'0 0.0
2017-May-25 06:29N 60°24' E 005°19'0 0.0
2017-May-25 05:59N 60°24' E 005°19'0 0.1
2017-May-25 05:30N 60°24' E 005°19'3 6.1
2017-May-25 05:00N 60°24' E 005°13'510.4
2017-May-25 04:30N 60°25' E 005°03'613.0
2017-May-25 04:00N 60°31' E 004°57'612.0
2017-May-25 03:30N 60°37' E 004°53'611.8
2017-May-25 03:00N 60°42' E 004°48'612.9
2017-May-25 02:30N 60°45' E 004°37'612.6
2017-May-25 02:00N 60°50' E 004°27'612.6
2017-May-25 01:30N 60°55' E 004°23'612.7
2017-May-25 01:00N 61°02' E 004°18'712.9
2017-May-25 00:30N 61°08' E 004°16'1912.9
2017-May-24 23:00N 61°27' E 004°19'713.0
2017-May-24 22:30N 61°34' E 004°21'713.2
2017-May-24 22:00N 61°40' E 004°22'612.9
2017-May-24 21:30N 61°46' E 004°29'613.1
2017-May-24 21:00N 61°51' E 004°36'713.3
2017-May-24 20:30N 61°57' E 004°44'612.1
2017-May-24 20:00N 61°58' E 004°56'612.2
2017-May-24 19:30N 61°55' E 005°07'714.1
2017-May-24 19:00N 61°55' E 005°21'714.9
2017-May-24 18:30N 61°54' E 005°37'7 0.4
2017-May-24 03:19N 61°51' E 005°50'310.3
2017-May-24 02:59N 61°53' E 005°44'612.2
2017-May-24 02:30N 61°55' E 005°32'612.3
2017-May-24 02:00N 61°54' E 005°19'612.1
2017-May-24 01:30N 61°55' E 005°06'713.0
2017-May-24 01:00N 61°59' E 004°55'713.5
2017-May-24 00:31N 62°03' E 004°44'611.9
2017-May-24 00:00N 62°09' E 004°47'612.7
2017-May-23 23:30N 62°14' E 004°54'612.3
2017-May-23 23:01N 62°19' E 005°01'612.5
2017-May-23 22:30N 62°25' E 005°08'714.2
2017-May-23 22:00N 62°29' E 005°21'815.9
2017-May-23 21:30N 62°31' E 005°37'816.0
2017-May-23 20:59N 62°28' E 005°53'815.9
2017-May-23 20:29N 62°23' E 006°07'816.0
2017-May-23 20:00N 62°24' E 006°24'815.8
2017-May-23 19:30N 62°27' E 006°40'714.6
2017-May-23 19:00N 62°25' E 006°55'714.4
2017-May-23 18:30N 62°18' E 006°59'815.1
2017-May-23 18:00N 62°11' E 007°01'5 9.7
2017-May-23 17:30N 62°06' E 006°60'3 5.6
2017-May-23 17:00N 62°06' E 007°06'1 1.9
2017-May-23 16:30N 62°07' E 007°07'2 4.0
2017-May-23 16:00N 62°07' E 007°11'0 0.1
2017-May-23 15:30N 62°07' E 007°11'0 0.0
2017-May-23 15:00N 62°07' E 007°11'0 0.0
2017-May-23 14:00N 62°07' E 007°11'0 0.1
2017-May-23 13:30N 62°07' E 007°11'0 0.0
2017-May-23 13:00N 62°07' E 007°11'0 0.0
2017-May-23 12:30N 62°07' E 007°11'0 0.0
2017-May-23 12:00N 62°07' E 007°11'0 0.0
2017-May-23 11:30N 62°07' E 007°11'0 0.0
2017-May-23 10:59N 62°07' E 007°11'0 0.0
2017-May-23 10:30N 62°07' E 007°11'0 0.0
2017-May-23 10:00N 62°07' E 007°11'0 0.0
2017-May-23 09:30N 62°07' E 007°11'0 0.0
2017-May-23 09:00N 62°07' E 007°11'0 0.0
2017-May-23 08:30N 62°07' E 007°11'0 0.0
2017-May-23 08:00N 62°07' E 007°11'0 0.0
2017-May-23 07:30N 62°07' E 007°11'0 0.0
2017-May-23 07:00N 62°07' E 007°11'0 0.0
2017-May-23 06:30N 62°07' E 007°11'0 0.0
2017-May-23 06:00N 62°07' E 007°11'0 0.2
2017-May-23 05:30N 62°07' E 007°11'5 9.6
2017-May-23 05:00N 62°06' E 007°01'612.5
2017-May-23 04:30N 62°12' E 007°02'816.7
2017-May-23 04:00N 62°20' E 006°57'715.2
2017-May-23 03:30N 62°27' E 006°50'816.2
2017-May-23 03:00N 62°26' E 006°32'917.5
2017-May-23 02:30N 62°23' E 006°15'815.6
2017-May-23 02:00N 62°26' E 005°60'917.9
2017-May-23 01:30N 62°30' E 005°42'917.6
2017-May-23 01:00N 62°28' E 005°23'1019.6
2017-May-23 00:30N 62°23' E 005°05'1020.9
2017-May-23 00:00N 62°14' E 004°54'1121.4
2017-May-22 23:30N 62°04' E 004°44'1121.2
2017-May-22 23:00N 61°55' E 004°33'1121.1
2017-May-22 22:30N 61°45' E 004°24'1121.6
2017-May-22 22:00N 61°34' E 004°22'1122.0
2017-May-22 21:30N 61°23' E 004°21'918.8
2017-May-22 21:00N 61°15' E 004°31'1020.2
2017-May-22 20:29N 61°14' E 004°52'714.1
2017-May-22 20:00N 61°10' E 005°04'815.5
2017-May-22 19:30N 61°05' E 005°16'1019.3
2017-May-22 19:00N 61°06' E 005°36'1020.7
2017-May-22 18:30N 61°08' E 005°57'1021.0
2017-May-22 18:00N 61°07' E 006°18'918.0
2017-May-22 17:30N 61°10' E 006°36'917.8
2017-May-22 17:00N 61°08' E 006°53'1020.1
2017-May-22 16:30N 60°59' E 007°04'611.9
2017-May-22 16:00N 60°54' E 007°10'3 5.6
2017-May-22 15:30N 60°52' E 007°07'0 0.3
2017-May-22 14:58N 60°52' E 007°07'0 0.0
2017-May-22 13:58N 60°52' E 007°07'0 0.0
2017-May-22 13:28N 60°52' E 007°07'0 0.0
2017-May-22 12:58N 60°52' E 007°07'0 0.0
2017-May-22 12:28N 60°52' E 007°07'0 0.0
2017-May-22 11:58N 60°52' E 007°07'0 0.0
2017-May-22 11:28N 60°52' E 007°07'0 0.0
2017-May-22 10:58N 60°52' E 007°07'0 0.0
2017-May-22 10:28N 60°52' E 007°07'0 0.0
2017-May-22 09:58N 60°52' E 007°07'0 0.0
2017-May-22 09:28N 60°52' E 007°07'0 0.0
2017-May-22 08:58N 60°52' E 007°07'0 0.0
2017-May-22 08:28N 60°52' E 007°07'0 0.0
2017-May-22 07:58N 60°52' E 007°07'0 0.0
2017-May-22 07:28N 60°52' E 007°07'0 0.0
2017-May-22 06:58N 60°52' E 007°07'0 0.0
2017-May-22 06:28N 60°52' E 007°07'0 0.7
2017-May-22 06:00N 60°52' E 007°08'5 8.9
2017-May-22 05:30N 60°56' E 007°10'713.8
2017-May-22 05:01N 61°02' E 007°02'714.4
2017-May-22 04:30N 61°08' E 006°54'714.6
2017-May-22 04:00N 61°11' E 006°40'713.3
2017-May-22 03:30N 61°07' E 006°30'714.7
2017-May-22 03:00N 61°07' E 006°14'815.1
2017-May-22 02:30N 61°08' E 005°59'815.1
2017-May-22 02:00N 61°08' E 005°43'714.8
2017-May-22 01:30N 61°05' E 005°29'713.3
2017-May-22 00:59N 61°05' E 005°15'713.4
2017-May-22 00:30N 61°04' E 005°02'815.1
2017-May-22 00:00N 61°00' E 004°49'714.0
2017-May-21 23:30N 60°55' E 004°40'612.4
2017-May-21 23:00N 60°51' E 004°30'714.6
2017-May-21 22:30N 60°44' E 004°25'815.5
2017-May-21 22:00N 60°36' E 004°25'815.2
2017-May-21 21:30N 60°29' E 004°25'7016.8
2017-May-21 17:20N 59°19' E 004°40'618.8
2017-May-21 17:00N 59°13' E 004°42'918.7
2017-May-21 16:30N 59°07' E 004°57'918.2
2017-May-21 16:01N 59°07' E 005°14'816.8
2017-May-21 15:30N 59°07' E 005°31'815.9
2017-May-21 15:00N 59°00' E 005°41'2 4.5
2017-May-21 14:28N 58°58' E 005°44'0 0.0
2017-May-21 13:28N 58°58' E 005°44'0 0.0
2017-May-21 12:58N 58°58' E 005°44'0 0.0
2017-May-21 12:28N 58°58' E 005°44'0 0.0
2017-May-21 11:58N 58°58' E 005°44'0 0.0
2017-May-21 11:28N 58°58' E 005°44'0 0.0
2017-May-21 10:58N 58°58' E 005°44'0 0.0
2017-May-21 10:28N 58°58' E 005°44'0 0.0
2017-May-21 09:58N 58°58' E 005°44'0 0.0
2017-May-21 09:28N 58°58' E 005°44'0 0.0
2017-May-21 08:58N 58°58' E 005°44'0 0.0
2017-May-21 08:28N 58°58' E 005°44'0 0.0
2017-May-21 07:58N 58°58' E 005°44'0 0.0
2017-May-21 07:28N 58°58' E 005°44'0 0.0
2017-May-21 06:55N 58°58' E 005°44'0 0.0
2017-May-21 06:28N 58°58' E 005°44'1 1.2
2017-May-21 06:00N 58°59' E 005°43'612.0
2017-May-21 05:30N 59°03' E 005°34'815.9
2017-May-21 05:00N 58°55' E 005°32'714.2
2017-May-21 04:31N 58°49' E 005°26'816.2
2017-May-21 04:00N 58°43' E 005°15'918.5
2017-May-21 03:30N 58°35' E 005°07'917.7
2017-May-21 03:00N 58°27' E 004°59'816.8
2017-May-21 02:30N 58°19' E 004°52'816.5
2017-May-21 02:00N 58°12' E 004°44'7618.9
2017-May-20 22:00N 57°00' E 004°00'7915.8 160 / 211020.710.8 9.5 8.510.0
2017-May-20 17:00N 55°42' E 003°36'15218.3 190 / 171019.627.0 11.0 9.010.0
2017-May-20 08:40N 53°12' E 002°46'320.5
2017-May-20 08:30N 53°09' E 002°44'1020.1
2017-May-20 08:00N 52°59' E 002°41'1120.5
2017-May-20 07:29N 52°49' E 002°41'4019.6
2017-May-20 05:25N 52°08' E 002°39'819.4
2017-May-20 04:59N 52°00' E 002°38'919.3
2017-May-20 04:30N 51°51' E 002°39'1319.0
2017-May-20 03:50N 51°40' E 002°27'619.1
2017-May-20 03:30N 51°36' E 002°20'918.9
2017-May-20 03:00N 51°28' E 002°11'918.2
2017-May-20 02:30N 51°20' E 002°07'917.8
2017-May-20 02:01N 51°12' E 001°59'918.9
2017-May-20 01:30N 51°07' E 001°46'918.8
2017-May-20 01:00N 51°01' E 001°34'918.8
2017-May-20 00:30N 50°54' E 001°25'1019.1
2017-May-20 00:00N 50°45' E 001°21'3418.3
2017-May-19 22:10N 50°27' E 000°36'319.0
2017-May-19 22:00N 50°26' E 000°31'4545.3
2017-May-19 22:00N 50°24' E 000°36'1225.0 230 / 141016.210.8 11.0 7.912.0
2017-May-19 21:30N 50°24' E 000°17'1018.8
2017-May-19 20:59N 50°21' E 000°02'918.5
2017-May-19 20:30N 50°24' W 000°11'815.9
2017-May-19 20:00N 50°28' W 000°22'917.2
2017-May-19 19:30N 50°32' W 000°34'917.4
2017-May-19 19:00N 50°36' W 000°46'713.1
2017-May-19 18:31N 50°39' W 000°55'4 8.5
2017-May-19 18:01N 50°43' W 000°59'816.9
2017-May-19 17:30N 50°46' W 001°12'5 9.3
2017-May-19 17:00N 50°49' W 001°17'510.3
2017-May-19 16:30N 50°52' W 001°23'3 5.8
2017-May-19 16:01N 50°54' W 001°26'0 0.6
2017-May-19 15:28N 50°54' W 001°26'0 0.0
2017-May-19 14:58N 50°54' W 001°26'0 0.0
2017-May-19 13:58N 50°54' W 001°26'0 0.0
2017-May-19 13:28N 50°54' W 001°26'0 0.0
2017-May-19 12:58N 50°54' W 001°26'0 0.0
2017-May-19 12:28N 50°54' W 001°26'0 0.0
2017-May-19 11:58N 50°54' W 001°26'0 0.0
2017-May-19 11:28N 50°54' W 001°26'0 0.0
2017-May-19 10:58N 50°54' W 001°26'0 0.0
2017-May-19 10:28N 50°54' W 001°26'0 0.0
2017-May-19 09:58N 50°54' W 001°26'0 0.0
2017-May-19 09:28N 50°54' W 001°26'0 0.0
2017-May-19 08:58N 50°54' W 001°26'0 0.0
2017-May-19 08:28N 50°54' W 001°26'0 0.0
2017-May-19 07:58N 50°54' W 001°26'0 0.0
2017-May-19 07:28N 50°54' W 001°26'0 0.0
2017-May-19 06:58N 50°54' W 001°26'0 0.0
2017-May-19 06:28N 50°54' W 001°26'0 0.0
2017-May-19 05:58N 50°54' W 001°26'1 1.4
2017-May-19 05:30N 50°54' W 001°25'4 8.9
2017-May-19 05:00N 50°51' W 001°20'4 8.8
2017-May-19 04:31N 50°47' W 001°18'816.4
2017-May-19 04:01N 50°45' W 001°06'5010.1
2017-May-18 23:00N 50°00' W 001°42'45 2.8 270 / 171013.210.8
2017-May-18 06:44N 49°27' W 002°30'  

Dump ship's entire track history